createdAt,value
2023-02-11T00:01:37.468Z,7.35
2023-02-11T00:04:07.284Z,7.36
2023-02-11T00:06:36.327Z,7.33
2023-02-11T00:09:04.653Z,7.35
2023-02-11T00:11:32.682Z,7.34
2023-02-11T00:14:02.209Z,7.36
2023-02-11T00:16:31.407Z,7.39
2023-02-11T00:19:00.687Z,7.40
2023-02-11T00:21:30.267Z,7.40
2023-02-11T00:23:59.638Z,7.42
2023-02-11T00:26:30.014Z,7.39
2023-02-11T00:28:58.042Z,7.39
2023-02-11T00:31:27.259Z,7.41
2023-02-11T00:33:55.424Z,7.42
2023-02-11T00:36:24.610Z,7.43
2023-02-11T00:38:54.773Z,7.45
2023-02-11T00:41:23.262Z,7.48
2023-02-11T00:43:51.309Z,7.49
2023-02-11T00:46:19.113Z,7.48
2023-02-11T00:48:46.830Z,7.51
2023-02-11T00:51:14.506Z,7.51
2023-02-11T00:53:42.212Z,7.53
2023-02-11T00:56:11.732Z,7.54
2023-02-11T00:58:39.497Z,7.56
2023-02-11T01:01:07.806Z,7.57
2023-02-11T01:03:35.896Z,7.54
2023-02-11T01:06:03.594Z,7.55
2023-02-11T01:08:31.284Z,7.53
2023-02-11T01:11:00.246Z,7.55
2023-02-11T01:13:30.128Z,7.56
2023-02-11T01:15:58.378Z,7.56
2023-02-11T01:18:26.619Z,7.57
2023-02-11T01:20:54.543Z,7.57
2023-02-11T01:23:22.605Z,7.57
2023-02-11T01:25:50.584Z,7.56
2023-02-11T01:28:19.452Z,7.55
2023-02-11T01:30:48.878Z,7.57
2023-02-11T01:33:16.582Z,7.59
2023-02-11T01:35:45.011Z,7.61
2023-02-11T01:38:16.828Z,7.59
2023-02-11T01:40:48.417Z,7.62
2023-02-11T01:43:16.145Z,7.62
2023-02-11T01:46:04.368Z,7.59
2023-02-11T01:48:35.561Z,7.59
2023-02-11T01:51:06.562Z,7.60
2023-02-11T01:53:52.648Z,7.60
2023-02-11T01:56:39.387Z,7.62
2023-02-11T01:59:11.460Z,7.56
2023-02-11T02:01:41.715Z,7.57
2023-02-11T02:04:11.488Z,7.57
2023-02-11T02:06:43.188Z,7.57
2023-02-11T02:09:14.258Z,7.58
2023-02-11T02:11:42.063Z,7.58
2023-02-11T02:14:09.764Z,7.57
2023-02-11T02:16:38.207Z,7.56
2023-02-11T02:19:26.093Z,7.58
2023-02-11T02:22:40.954Z,7.60
2023-02-11T02:25:29.838Z,7.61
2023-02-11T02:28:05.064Z,7.56
2023-02-11T02:31:05.568Z,7.60
2023-02-11T02:33:51.390Z,7.59
2023-02-11T02:36:24.271Z,7.62
2023-02-11T02:38:55.221Z,7.60
2023-02-11T02:41:25.007Z,7.60
2023-02-11T02:43:53.048Z,7.59
2023-02-11T02:46:22.667Z,7.57
2023-02-11T02:48:52.733Z,7.64
2023-02-11T02:51:38.860Z,7.64
2023-02-11T02:54:23.263Z,7.62
2023-02-11T02:56:56.330Z,7.62
2023-02-11T02:59:32.018Z,7.60
2023-02-11T03:02:06.430Z,7.63
2023-02-11T03:04:39.098Z,7.64
2023-02-11T03:07:11.357Z,7.64
2023-02-11T03:09:42.658Z,7.65
2023-02-11T03:12:11.866Z,7.67
2023-02-11T03:14:40.160Z,7.65
2023-02-11T03:17:09.682Z,7.65
2023-02-11T03:19:39.983Z,7.63
2023-02-11T03:22:13.180Z,7.65
2023-02-11T03:24:41.688Z,7.63
2023-02-11T03:27:13.384Z,7.61
2023-02-11T03:29:44.334Z,7.62
2023-02-11T03:32:17.064Z,7.64
2023-02-11T03:34:50.000Z,7.63
2023-02-11T03:37:20.200Z,7.63
2023-02-11T03:39:52.666Z,7.60
2023-02-11T03:42:20.808Z,7.57
2023-02-11T03:44:51.555Z,7.58
2023-02-11T03:47:22.813Z,7.57
2023-02-11T03:49:53.129Z,7.58
2023-02-11T03:52:21.596Z,7.60
2023-02-11T03:54:51.184Z,7.59
2023-02-11T03:57:18.873Z,7.60
2023-02-11T03:59:54.638Z,7.59
2023-02-11T04:02:22.996Z,7.58
2023-02-11T04:04:52.091Z,7.55
2023-02-11T04:07:19.766Z,7.57
2023-02-11T04:09:47.505Z,7.57
2023-02-11T04:12:15.156Z,7.60
2023-02-11T04:14:42.883Z,7.61
2023-02-11T04:17:11.045Z,7.59
2023-02-11T04:19:38.870Z,7.58
2023-02-11T04:22:08.208Z,7.54
2023-02-11T04:24:35.983Z,7.53
2023-02-11T04:27:03.674Z,7.55
2023-02-11T04:29:32.107Z,7.55
2023-02-11T04:31:59.800Z,7.56
2023-02-11T04:34:27.776Z,7.57
2023-02-11T04:36:55.453Z,7.58
2023-02-11T04:39:24.514Z,7.58
2023-02-11T04:41:52.247Z,7.55
2023-02-11T04:44:19.917Z,7.53
2023-02-11T04:46:47.616Z,7.53
2023-02-11T04:49:16.156Z,7.51
2023-02-11T04:51:46.441Z,7.51
2023-02-11T04:54:15.534Z,7.50
2023-02-11T04:56:44.699Z,7.48
2023-02-11T04:59:13.330Z,7.48
2023-02-11T05:01:41.187Z,7.47
2023-02-11T05:04:09.085Z,7.46
2023-02-11T05:06:36.851Z,7.43
2023-02-11T05:09:04.687Z,7.45
2023-02-11T05:11:32.511Z,7.43
2023-02-11T05:14:01.611Z,7.43
2023-02-11T05:16:29.425Z,7.46
2023-02-11T05:18:57.060Z,7.45
2023-02-11T05:21:24.764Z,7.49
2023-02-11T05:23:52.747Z,7.50
2023-02-11T05:26:22.551Z,7.50
2023-02-11T05:28:50.628Z,7.50
2023-02-11T05:31:19.763Z,7.50
2023-02-11T05:33:47.495Z,7.49
2023-02-11T05:36:16.009Z,7.49
2023-02-11T05:38:43.859Z,7.49
2023-02-11T05:41:12.338Z,7.51
2023-02-11T05:43:40.175Z,7.51
2023-02-11T05:46:07.889Z,7.53
2023-02-11T05:48:36.943Z,7.53
2023-02-11T05:51:05.003Z,7.54
2023-02-11T05:53:32.645Z,7.54
2023-02-11T05:56:00.386Z,7.50
2023-02-11T05:58:28.409Z,7.50
2023-02-11T06:00:56.182Z,7.51
2023-02-11T06:03:24.017Z,7.54
2023-02-11T06:05:53.231Z,7.56
2023-02-11T06:08:21.007Z,7.54
2023-02-11T06:10:48.740Z,7.54
2023-02-11T06:13:18.682Z,7.54
2023-02-11T06:15:46.534Z,7.55
2023-02-11T06:18:14.176Z,7.55
2023-02-11T06:20:41.947Z,7.55
2023-02-11T06:23:11.129Z,7.57
2023-02-11T06:25:38.841Z,7.58
2023-02-11T06:28:06.585Z,7.61
2023-02-11T06:30:34.329Z,7.61
2023-02-11T06:33:02.024Z,7.61
2023-02-11T06:35:30.482Z,7.59
2023-02-11T06:37:58.130Z,7.60
2023-02-11T06:40:27.251Z,7.61
2023-02-11T06:42:54.967Z,7.59
2023-02-11T06:45:22.681Z,7.63
2023-02-11T06:47:52.442Z,7.62
2023-02-11T06:50:20.260Z,7.63
2023-02-11T06:52:48.109Z,7.65
2023-02-11T06:55:16.001Z,7.65
2023-02-11T06:57:45.093Z,7.65
2023-02-11T07:00:14.306Z,7.67
2023-02-11T07:02:41.978Z,7.67
2023-02-11T07:05:10.125Z,7.68
2023-02-11T07:07:38.109Z,7.69
2023-02-11T07:10:06.519Z,7.69
2023-02-11T07:12:34.215Z,7.70
2023-02-11T07:15:03.252Z,7.69
2023-02-11T07:17:30.982Z,7.72
2023-02-11T07:19:58.743Z,7.73
2023-02-11T07:22:26.553Z,7.74
2023-02-11T07:24:54.218Z,7.74
2023-02-11T07:27:21.915Z,7.71
2023-02-11T07:29:49.638Z,7.72
2023-02-11T07:32:18.842Z,7.73
2023-02-11T07:34:48.131Z,7.72
2023-02-11T07:37:15.919Z,7.73
2023-02-11T07:39:43.662Z,7.71
2023-02-11T07:42:11.379Z,7.75
2023-02-11T07:44:39.071Z,7.75
2023-02-11T07:47:06.841Z,7.76
2023-02-11T07:49:36.233Z,7.77
2023-02-11T07:52:04.054Z,7.80
2023-02-11T07:54:31.760Z,7.78
2023-02-11T07:56:59.698Z,7.78
2023-02-11T07:59:27.514Z,7.78
2023-02-11T08:01:55.245Z,7.79
2023-02-11T08:04:23.104Z,7.81
2023-02-11T08:06:52.859Z,7.78
2023-02-11T08:09:20.571Z,7.80
2023-02-11T08:11:48.182Z,7.83
2023-02-11T08:14:16.047Z,7.86
2023-02-11T08:16:43.850Z,7.81
2023-02-11T08:19:13.780Z,7.85
2023-02-11T08:21:42.048Z,7.84
2023-02-11T08:24:11.335Z,7.82
2023-02-11T08:26:39.217Z,7.88
2023-02-11T08:29:09.677Z,7.87
2023-02-11T08:31:40.003Z,7.85
2023-02-11T08:34:07.917Z,7.87
2023-02-11T08:36:36.978Z,7.88
2023-02-11T08:39:22.480Z,7.91
2023-02-11T08:41:53.138Z,7.80
2023-02-11T08:44:21.724Z,7.97
2023-02-11T08:46:50.168Z,7.96
2023-02-11T08:49:17.886Z,7.93
2023-02-11T08:51:46.091Z,7.98
2023-02-11T08:54:14.288Z,7.99
2023-02-11T08:56:42.300Z,7.96
2023-02-11T08:59:14.104Z,7.99
2023-02-11T09:01:42.023Z,7.99
2023-02-11T09:04:10.684Z,8.00
2023-02-11T09:06:38.348Z,8.02
2023-02-11T09:09:06.538Z,8.06
2023-02-11T09:11:36.074Z,8.07
2023-02-11T09:14:05.021Z,8.10
2023-02-11T09:16:36.443Z,8.14
2023-02-11T09:19:06.636Z,8.18
2023-02-11T09:21:34.706Z,8.19
2023-02-11T09:24:02.401Z,8.22
2023-02-11T09:26:31.865Z,8.24
2023-02-11T09:29:00.016Z,8.26
2023-02-11T09:31:29.296Z,8.28
2023-02-11T09:34:00.198Z,8.33
2023-02-11T09:36:29.749Z,8.37
2023-02-11T09:38:59.794Z,8.40
2023-02-11T09:41:37.028Z,8.41
2023-02-11T09:44:07.925Z,8.44
2023-02-11T09:46:39.312Z,8.44
2023-02-11T09:49:08.871Z,8.48
2023-02-11T09:51:41.815Z,8.50
2023-02-11T09:54:16.718Z,8.50
2023-02-11T09:56:44.470Z,8.52
2023-02-11T09:59:15.385Z,8.52
2023-02-11T10:01:48.574Z,8.53
2023-02-11T10:04:23.932Z,8.55
2023-02-11T10:06:54.335Z,8.58
2023-02-11T10:09:31.443Z,8.60
2023-02-11T10:12:09.525Z,8.64
2023-02-11T10:14:54.863Z,8.67
2023-02-11T10:17:27.875Z,8.66
2023-02-11T10:20:07.293Z,8.68
2023-02-11T10:22:38.024Z,8.69
2023-02-11T10:25:18.887Z,8.74
2023-02-11T10:27:46.606Z,8.78
2023-02-11T10:32:31.354Z,8.81
2023-02-11T10:35:03.279Z,8.82
2023-02-11T10:37:31.245Z,8.86
2023-02-11T10:39:58.962Z,8.87
2023-02-11T10:42:27.092Z,8.91
2023-02-11T10:44:59.440Z,8.95
2023-02-11T10:47:32.834Z,8.99
2023-02-11T10:50:03.685Z,9.01
2023-02-11T10:52:32.322Z,9.04
2023-02-11T10:55:02.772Z,9.08
2023-02-11T10:57:34.633Z,9.11
2023-02-11T11:00:21.773Z,9.18
2023-02-11T11:02:57.430Z,9.21
2023-02-11T11:05:30.903Z,9.25
2023-02-11T11:08:00.277Z,9.28
2023-02-11T11:10:32.099Z,9.30
2023-02-11T11:12:59.782Z,9.32
2023-02-11T11:15:29.008Z,9.31
2023-02-11T11:18:22.098Z,9.31
2023-02-11T11:20:57.629Z,9.30
2023-02-11T11:23:25.818Z,9.33
2023-02-11T11:26:07.564Z,9.35
2023-02-11T11:28:39.595Z,9.34
2023-02-11T11:31:13.895Z,9.38
2023-02-11T11:33:44.498Z,9.36
2023-02-11T11:36:14.337Z,9.41
2023-02-11T11:38:45.753Z,9.46
2023-02-11T11:41:18.224Z,9.50
2023-02-11T11:43:57.032Z,9.54
2023-02-11T11:46:26.604Z,9.57
2023-02-11T11:48:57.909Z,9.61
2023-02-11T11:51:25.999Z,9.62
2023-02-11T11:53:57.572Z,9.62
2023-02-11T11:56:27.928Z,9.72
2023-02-11T11:58:55.663Z,9.70
2023-02-11T12:01:33.690Z,9.75
2023-02-11T12:04:25.239Z,9.78
2023-02-11T12:07:03.998Z,9.84
2023-02-11T12:09:37.790Z,9.87
2023-02-11T12:12:24.163Z,9.88
2023-02-11T12:14:57.251Z,9.91
2023-02-11T12:17:38.570Z,9.95
2023-02-11T12:20:18.082Z,10.00
2023-02-11T12:22:52.611Z,10.02
2023-02-11T12:25:27.415Z,10.07
2023-02-11T12:28:02.741Z,10.09
2023-02-11T12:30:41.201Z,10.18
2023-02-11T12:33:14.527Z,10.21
2023-02-11T12:35:49.275Z,10.25
2023-02-11T12:38:37.499Z,10.25
2023-02-11T12:41:15.727Z,10.32
2023-02-11T12:43:43.364Z,10.34
2023-02-11T12:46:35.731Z,10.38
2023-02-11T12:49:20.515Z,10.40
2023-02-11T12:52:04.102Z,10.43
2023-02-11T12:54:34.148Z,10.43
2023-02-11T12:57:04.020Z,10.43
2023-02-11T12:59:41.554Z,10.46
2023-02-11T13:02:17.946Z,10.51
2023-02-11T13:04:49.515Z,10.54
2023-02-11T13:07:22.738Z,10.54
2023-02-11T13:09:52.922Z,10.60
2023-02-11T13:12:40.337Z,10.62
2023-02-11T13:15:11.064Z,10.62
2023-02-11T13:17:42.184Z,10.65
2023-02-11T13:20:16.805Z,10.68
2023-02-11T13:22:49.769Z,10.70
2023-02-11T13:25:23.032Z,10.69
2023-02-11T13:27:58.679Z,10.70
2023-02-11T13:30:30.725Z,10.69
2023-02-11T13:33:06.882Z,10.69
2023-02-11T13:35:35.614Z,10.68
2023-02-11T13:38:06.361Z,10.67
2023-02-11T13:40:35.906Z,10.72
2023-02-11T13:43:04.963Z,10.75
2023-02-11T13:45:35.811Z,10.77
2023-02-11T13:48:06.024Z,10.78
2023-02-11T13:50:37.766Z,10.78
2023-02-11T13:53:07.953Z,10.78
2023-02-11T13:55:36.345Z,10.78
2023-02-11T13:58:19.557Z,10.80
2023-02-11T14:00:49.818Z,10.81
2023-02-11T14:03:46.859Z,10.81
2023-02-11T14:06:35.088Z,10.80
2023-02-11T14:09:34.541Z,10.82
2023-02-11T14:12:31.954Z,10.84
2023-02-11T14:15:15.986Z,10.87
2023-02-11T14:17:43.634Z,10.90
2023-02-11T14:20:33.782Z,10.90
2023-02-11T14:23:01.499Z,10.92
2023-02-11T14:25:30.564Z,10.92
2023-02-11T14:28:04.832Z,10.95
2023-02-11T14:30:55.967Z,10.94
2023-02-11T14:33:47.724Z,10.95
2023-02-11T14:36:24.272Z,10.96
2023-02-11T14:39:00.154Z,10.97
2023-02-11T14:41:31.515Z,11.00
2023-02-11T14:44:01.111Z,11.00
2023-02-11T14:46:32.826Z,11.01
2023-02-11T14:49:03.159Z,11.02
2023-02-11T14:51:32.459Z,11.01
2023-02-11T14:54:04.661Z,11.05
2023-02-11T14:56:34.312Z,11.04
2023-02-11T14:59:02.907Z,11.04
2023-02-11T15:01:34.027Z,10.99
2023-02-11T15:04:02.694Z,10.98
2023-02-11T15:06:32.701Z,10.96
2023-02-11T15:09:03.564Z,10.95
2023-02-11T15:11:34.680Z,10.95
2023-02-11T15:14:09.289Z,10.97
2023-02-11T15:16:41.947Z,10.97
2023-02-11T15:19:20.885Z,10.98
2023-02-11T15:21:48.711Z,10.97
2023-02-11T15:24:25.478Z,10.96
2023-02-11T15:27:02.531Z,10.96
2023-02-11T15:29:36.558Z,10.94
2023-02-11T15:32:08.813Z,10.94
2023-02-11T15:34:37.230Z,10.93
2023-02-11T15:37:05.310Z,10.92
2023-02-11T15:39:36.523Z,10.91
2023-02-11T15:42:23.856Z,10.91
2023-02-11T15:45:09.782Z,10.88
2023-02-11T15:47:37.594Z,10.87
2023-02-11T15:50:05.872Z,10.86
2023-02-11T15:52:34.682Z,10.86
2023-02-11T15:55:03.689Z,10.83
2023-02-11T15:57:32.752Z,10.85
2023-02-11T16:00:04.390Z,10.85
2023-02-11T16:02:33.962Z,10.82
2023-02-11T16:05:08.467Z,10.81
2023-02-11T16:07:45.097Z,10.80
2023-02-11T16:10:25.275Z,10.79
2023-02-11T16:12:56.770Z,10.75
2023-02-11T16:15:43.124Z,10.74
2023-02-11T16:18:42.435Z,10.73
2023-02-11T16:21:16.748Z,10.71
2023-02-11T16:23:49.706Z,10.72
2023-02-11T16:26:23.832Z,10.71
2023-02-11T16:28:52.977Z,10.71
2023-02-11T16:31:21.073Z,10.68
2023-02-11T16:33:48.868Z,10.68
2023-02-11T16:36:17.996Z,10.68
2023-02-11T16:38:45.614Z,10.66
2023-02-11T16:41:13.297Z,10.63
2023-02-11T16:43:40.971Z,10.57
2023-02-11T16:46:14.675Z,10.58
2023-02-11T16:48:42.379Z,10.56
2023-02-11T16:51:12.306Z,10.54
2023-02-11T16:53:39.967Z,10.54
2023-02-11T16:56:08.035Z,10.54
2023-02-11T16:58:35.694Z,10.54
2023-02-11T17:01:03.459Z,10.52
2023-02-11T17:03:37.438Z,10.53
2023-02-11T17:06:05.856Z,10.51
2023-02-11T17:08:33.814Z,10.52
2023-02-11T17:11:01.441Z,10.52
2023-02-11T17:13:29.132Z,10.50
2023-02-11T17:15:56.784Z,10.46
2023-02-11T17:18:24.416Z,10.47
2023-02-11T17:20:53.689Z,10.41
2023-02-11T17:23:21.362Z,10.47
2023-02-11T17:25:56.302Z,10.48
2023-02-11T17:28:24.051Z,10.49
2023-02-11T17:30:51.822Z,10.49
2023-02-11T17:33:19.976Z,10.49
2023-02-11T17:35:47.694Z,10.45
2023-02-11T17:38:16.827Z,10.46
2023-02-11T17:40:44.507Z,10.46
2023-02-11T17:43:12.288Z,10.44
2023-02-11T17:45:45.888Z,10.45
2023-02-11T17:48:13.666Z,10.43
2023-02-11T17:50:41.417Z,10.39
2023-02-11T17:53:09.224Z,10.41
2023-02-11T17:55:38.874Z,10.41
2023-02-11T17:58:06.834Z,10.39
2023-02-11T18:00:34.688Z,10.38
2023-02-11T18:03:03.024Z,10.39
2023-02-11T18:05:35.114Z,10.40
2023-02-11T18:08:02.928Z,10.37
2023-02-11T18:10:30.718Z,10.37
2023-02-11T18:12:59.912Z,10.38
2023-02-11T18:15:27.736Z,10.36
2023-02-11T18:17:56.400Z,10.35
2023-02-11T18:20:24.012Z,10.35
2023-02-11T18:22:51.735Z,10.33
2023-02-11T18:25:19.749Z,10.33
2023-02-11T18:27:50.167Z,10.32
2023-02-11T18:30:20.606Z,10.30
2023-02-11T18:32:48.422Z,10.29
2023-02-11T18:35:16.654Z,10.27
2023-02-11T18:37:44.396Z,10.25
2023-02-11T18:40:13.175Z,10.21
2023-02-11T18:42:41.120Z,10.23
2023-02-11T18:45:10.731Z,10.27
2023-02-11T18:47:40.236Z,10.26
2023-02-11T18:50:13.735Z,10.28
2023-02-11T18:52:41.506Z,10.27
2023-02-11T18:55:10.115Z,10.27
2023-02-11T18:57:37.997Z,10.26
2023-02-11T19:00:06.561Z,10.25
2023-02-11T19:02:35.555Z,10.23
2023-02-11T19:05:05.891Z,10.10
2023-02-11T19:07:33.709Z,10.22
2023-02-11T19:10:01.439Z,10.21
2023-02-11T19:12:29.140Z,10.17
2023-02-11T19:14:59.080Z,10.18
2023-02-11T19:17:26.968Z,10.18
2023-02-11T19:19:54.721Z,10.16
2023-02-11T19:22:23.831Z,10.17
2023-02-11T19:24:51.687Z,10.17
2023-02-11T19:27:19.446Z,10.17
2023-02-11T19:29:47.193Z,10.17
2023-02-11T19:32:15.730Z,10.15
2023-02-11T19:34:43.584Z,10.16
2023-02-11T19:37:13.265Z,10.15
2023-02-11T19:39:42.391Z,10.14
2023-02-11T19:42:10.576Z,10.14
2023-02-11T19:44:38.390Z,10.12
2023-02-11T19:47:06.839Z,10.14
2023-02-11T19:49:34.665Z,10.13
2023-02-11T19:52:02.362Z,10.14
2023-02-11T19:54:30.151Z,10.13
2023-02-11T19:56:59.475Z,10.14
2023-02-11T19:59:27.531Z,10.14
2023-02-11T20:01:55.302Z,10.17
2023-02-11T20:04:25.030Z,10.17
2023-02-11T20:06:52.774Z,10.18
2023-02-11T20:09:21.685Z,10.17
2023-02-11T20:11:50.191Z,10.17
2023-02-11T20:14:19.339Z,10.16
2023-02-11T20:16:49.742Z,10.15
2023-02-11T20:19:19.229Z,10.16
2023-02-11T20:21:47.978Z,10.16
2023-02-11T20:24:16.035Z,10.16
2023-02-11T20:26:45.266Z,10.15
2023-02-11T20:29:13.052Z,10.15
2023-02-11T20:31:42.791Z,10.16
2023-02-11T20:34:11.125Z,10.15
2023-02-11T20:36:40.255Z,10.14
2023-02-11T20:39:09.106Z,10.14
2023-02-11T20:41:39.937Z,10.14
2023-02-11T20:44:09.734Z,10.14
2023-02-11T20:46:40.067Z,10.11
2023-02-11T20:49:11.325Z,10.09
2023-02-11T20:51:39.386Z,10.08
2023-02-11T20:54:07.535Z,10.06
2023-02-11T20:56:37.178Z,10.05
2023-02-11T20:59:05.973Z,10.02
2023-02-11T21:01:35.382Z,10.03
2023-02-11T21:04:04.643Z,10.02
2023-02-11T21:06:35.938Z,10.03
2023-02-11T21:09:03.750Z,10.05
2023-02-11T21:11:31.827Z,10.05
2023-02-11T21:13:59.586Z,10.00
2023-02-11T21:16:27.813Z,10.07
2023-02-11T21:18:56.933Z,10.06
2023-02-11T21:21:24.992Z,10.08
2023-02-11T21:23:55.701Z,10.07
2023-02-11T21:26:23.633Z,10.05
2023-02-11T21:28:51.959Z,10.06
2023-02-11T21:31:21.600Z,10.05
2023-02-11T21:33:49.848Z,10.01
2023-02-11T21:36:17.932Z,10.02
2023-02-11T21:38:45.856Z,9.96
2023-02-11T21:41:15.652Z,9.99
2023-02-11T21:43:45.665Z,9.98
2023-02-11T21:46:15.529Z,9.94
2023-02-11T21:48:43.667Z,9.94
2023-02-11T21:51:15.103Z,9.93
2023-02-11T21:53:42.825Z,9.91
2023-02-11T21:56:11.845Z,9.90
2023-02-11T21:58:41.072Z,9.88
2023-02-11T22:01:13.181Z,9.83
2023-02-11T22:03:41.004Z,9.83
2023-02-11T22:06:10.212Z,9.83
2023-02-11T22:08:38.086Z,9.83
2023-02-11T22:11:06.987Z,9.81
2023-02-11T22:13:35.344Z,9.77
2023-02-11T22:16:06.015Z,9.77
2023-02-11T22:18:33.917Z,9.75
2023-02-11T22:21:02.566Z,9.74
2023-02-11T22:23:30.848Z,9.74
2023-02-11T22:25:59.201Z,9.74
2023-02-11T22:28:27.060Z,9.73
2023-02-11T22:30:55.883Z,9.70
2023-02-11T22:33:25.460Z,9.73
2023-02-11T22:35:59.624Z,9.73
2023-02-11T22:38:27.591Z,9.71
2023-02-11T22:40:55.277Z,9.72
2023-02-11T22:43:22.933Z,9.71
2023-02-11T22:45:50.988Z,9.69
2023-02-11T22:48:22.096Z,9.71
2023-02-11T22:50:52.186Z,9.71
2023-02-11T22:53:19.945Z,9.68
2023-02-11T22:55:47.630Z,9.69
2023-02-11T22:58:15.356Z,9.66
2023-02-11T23:00:43.379Z,9.66
2023-02-11T23:03:11.821Z,9.62
2023-02-11T23:05:40.268Z,9.59
2023-02-11T23:08:10.508Z,9.61
2023-02-11T23:10:39.530Z,9.59
2023-02-11T23:13:08.266Z,9.58
2023-02-11T23:15:40.251Z,9.57
2023-02-11T23:18:08.263Z,9.57
2023-02-11T23:20:36.312Z,9.55
2023-02-11T23:23:04.110Z,9.54
2023-02-11T23:25:33.654Z,9.51
2023-02-11T23:28:01.693Z,9.54
2023-02-11T23:30:29.877Z,9.51
2023-02-11T23:32:57.757Z,9.53
2023-02-11T23:35:25.432Z,9.53
2023-02-11T23:37:54.009Z,9.50
2023-02-11T23:40:22.427Z,9.50
2023-02-11T23:42:51.565Z,9.49
2023-02-11T23:45:19.426Z,9.50
2023-02-11T23:47:47.783Z,9.49
2023-02-11T23:50:15.699Z,9.50
2023-02-11T23:52:43.316Z,9.51
2023-02-11T23:55:11.100Z,9.51
2023-02-11T23:57:38.724Z,9.51
